sensor_id;sensor_type;location;lat;lon;timestamp;pressure;altitude;pressure_sealevel;temperature;humidity
44359;BME280;30077;52.474;13.326;2022-07-30T00:03:59;100932.94;;;19.87;52.96
44359;BME280;30077;52.474;13.326;2022-07-30T00:08:59;100929.00;;;19.80;52.87
44359;BME280;30077;52.474;13.326;2022-07-30T00:13:59;100929.34;;;19.75;53.10
44359;BME280;30077;52.474;13.326;2022-07-30T00:19:00;100930.56;;;19.71;53.56
44359;BME280;30077;52.474;13.326;2022-07-30T00:24:02;100932.66;;;19.67;53.74
44359;BME280;30077;52.474;13.326;2022-07-30T00:29:03;100935.84;;;19.61;54.03
44359;BME280;30077;52.474;13.326;2022-07-30T00:34:04;100925.97;;;19.60;54.13
44359;BME280;30077;52.474;13.326;2022-07-30T00:39:05;100926.84;;;19.61;53.91
44359;BME280;30077;52.474;13.326;2022-07-30T00:44:05;100923.75;;;19.54;54.11
44359;BME280;30077;52.474;13.326;2022-07-30T00:49:05;100921.28;;;19.51;54.62
44359;BME280;30077;52.474;13.326;2022-07-30T00:54:06;100909.00;;;19.47;55.02
44359;BME280;30077;52.474;13.326;2022-07-30T00:59:06;100909.22;;;19.44;54.93
44359;BME280;30077;52.474;13.326;2022-07-30T01:04:07;100912.16;;;19.41;55.42
44359;BME280;30077;52.474;13.326;2022-07-30T01:09:10;100921.38;;;19.38;55.40
44359;BME280;30077;52.474;13.326;2022-07-30T01:14:11;100911.91;;;19.33;55.76
44359;BME280;30077;52.474;13.326;2022-07-30T01:19:20;100913.00;;;19.30;55.96
44359;BME280;30077;52.474;13.326;2022-07-30T01:24:45;100905.88;;;19.29;55.90
44359;BME280;30077;52.474;13.326;2022-07-30T01:29:47;100908.94;;;19.24;56.05
44359;BME280;30077;52.474;13.326;2022-07-30T01:34:49;100907.44;;;19.20;56.55
44359;BME280;30077;52.474;13.326;2022-07-30T01:39:51;100908.66;;;19.16;56.50
44359;BME280;30077;52.474;13.326;2022-07-30T01:44:53;100901.75;;;19.12;57.04
44359;BME280;30077;52.474;13.326;2022-07-30T01:49:55;100897.56;;;19.08;57.12
44359;BME280;30077;52.474;13.326;2022-07-30T01:54:57;100894.25;;;19.05;57.40
44359;BME280;30077;52.474;13.326;2022-07-30T02:00:02;100901.72;;;19.01;57.41
44359;BME280;30077;52.474;13.326;2022-07-30T02:05:04;100900.13;;;18.98;57.70
44359;BME280;30077;52.474;13.326;2022-07-30T02:10:20;100903.09;;;18.95;57.88
44359;BME280;30077;52.474;13.326;2022-07-30T02:15:32;100909.34;;;18.96;57.78
44359;BME280;30077;52.474;13.326;2022-07-30T02:20:36;100904.16;;;18.93;58.02
44359;BME280;30077;52.474;13.326;2022-07-30T02:25:42;100901.69;;;18.90;58.07
44359;BME280;30077;52.474;13.326;2022-07-30T02:30:49;100892.72;;;18.89;57.96
44359;BME280;30077;52.474;13.326;2022-07-30T02:35:51;100896.88;;;18.82;58.21
44359;BME280;30077;52.474;13.326;2022-07-30T02:40:54;100887.16;;;18.80;58.37
44359;BME280;30077;52.474;13.326;2022-07-30T02:45:57;100893.75;;;18.75;58.54
44359;BME280;30077;52.474;13.326;2022-07-30T02:51:00;100892.16;;;18.73;58.72
44359;BME280;30077;52.474;13.326;2022-07-30T02:56:02;100896.88;;;18.69;59.10
44359;BME280;30077;52.474;13.326;2022-07-30T03:01:05;100893.91;;;18.61;59.53
44359;BME280;30077;52.474;13.326;2022-07-30T03:06:08;100885.31;;;18.56;59.68
44359;BME280;30077;52.474;13.326;2022-07-30T03:11:09;100890.94;;;18.53;59.78
44359;BME280;30077;52.474;13.326;2022-07-30T03:16:11;100898.50;;;18.48;60.22
44359;BME280;30077;52.474;13.326;2022-07-30T03:21:14;100896.78;;;18.47;60.44
44359;BME280;30077;52.474;13.326;2022-07-30T03:26:18;100896.91;;;18.45;60.25
44359;BME280;30077;52.474;13.326;2022-07-30T03:31:20;100905.66;;;18.49;60.37
44359;BME280;30077;52.474;13.326;2022-07-30T03:36:20;100905.66;;;18.49;60.56
44359;BME280;30077;52.474;13.326;2022-07-30T03:41:22;100928.31;;;18.59;60.74
44359;BME280;30077;52.474;13.326;2022-07-30T03:46:24;100934.09;;;18.66;60.33
44359;BME280;30077;52.474;13.326;2022-07-30T03:51:24;100929.81;;;18.63;60.14
44359;BME280;30077;52.474;13.326;2022-07-30T03:56:25;100924.41;;;18.63;60.57
44359;BME280;30077;52.474;13.326;2022-07-30T04:01:26;100935.59;;;18.70;60.52
44359;BME280;30077;52.474;13.326;2022-07-30T04:06:26;100931.84;;;18.72;60.29
44359;BME280;30077;52.474;13.326;2022-07-30T04:11:26;100934.31;;;18.75;60.44
44359;BME280;30077;52.474;13.326;2022-07-30T04:16:36;100941.84;;;18.83;60.16
44359;BME280;30077;52.474;13.326;2022-07-30T04:21:39;100940.53;;;18.89;60.00
44359;BME280;30077;52.474;13.326;2022-07-30T04:26:40;100948.31;;;18.81;59.85
44359;BME280;30077;52.474;13.326;2022-07-30T04:31:41;100956.34;;;18.82;60.50
44359;BME280;30077;52.474;13.326;2022-07-30T04:36:42;100959.63;;;18.74;60.23
44359;BME280;30077;52.474;13.326;2022-07-30T04:41:42;100947.47;;;18.80;60.42
44359;BME280;30077;52.474;13.326;2022-07-30T04:46:43;100954.94;;;18.76;60.57
44359;BME280;30077;52.474;13.326;2022-07-30T04:51:43;100952.47;;;18.73;60.12
44359;BME280;30077;52.474;13.326;2022-07-30T04:56:46;100956.69;;;18.78;60.15
44359;BME280;30077;52.474;13.326;2022-07-30T05:01:47;100948.50;;;18.90;59.98
44359;BME280;30077;52.474;13.326;2022-07-30T05:06:52;100950.81;;;19.08;59.51
44359;BME280;30077;52.474;13.326;2022-07-30T05:11:53;100957.31;;;19.40;58.76
44359;BME280;30077;52.474;13.326;2022-07-30T05:16:54;100960.50;;;19.45;58.32
44359;BME280;30077;52.474;13.326;2022-07-30T05:21:54;100952.78;;;19.52;58.65
44359;BME280;30077;52.474;13.326;2022-07-30T05:26:55;100945.13;;;19.46;58.72
44359;BME280;30077;52.474;13.326;2022-07-30T05:31:55;100946.81;;;19.82;57.34
44359;BME280;30077;52.474;13.326;2022-07-30T05:36:55;100939.06;;;19.78;57.30
44359;BME280;30077;52.474;13.326;2022-07-30T05:41:55;100945.22;;;20.13;56.66
44359;BME280;30077;52.474;13.326;2022-07-30T05:46:55;100944.47;;;19.78;56.91
44359;BME280;30077;52.474;13.326;2022-07-30T05:51:56;100944.00;;;20.06;57.16
44359;BME280;30077;52.474;13.326;2022-07-30T05:56:56;100955.97;;;20.26;56.04
44359;BME280;30077;52.474;13.326;2022-07-30T06:01:56;100953.97;;;20.51;56.02
44359;BME280;30077;52.474;13.326;2022-07-30T06:06:57;100966.00;;;20.47;55.61
44359;BME280;30077;52.474;13.326;2022-07-30T06:11:57;100956.56;;;20.52;55.97
44359;BME280;30077;52.474;13.326;2022-07-30T06:16:57;100959.88;;;20.44;56.14
44359;BME280;30077;52.474;13.326;2022-07-30T06:21:57;100966.16;;;20.11;56.83
44359;BME280;30077;52.474;13.326;2022-07-30T06:26:58;100965.78;;;20.27;56.09
44359;BME280;30077;52.474;13.326;2022-07-30T06:31:58;100977.75;;;20.13;57.08
44359;BME280;30077;52.474;13.326;2022-07-30T06:36:59;100974.41;;;19.99;56.75
44359;BME280;30077;52.474;13.326;2022-07-30T06:41:59;100974.03;;;20.37;56.85
44359;BME280;30077;52.474;13.326;2022-07-30T06:46:59;100982.91;;;20.61;55.95
44359;BME280;30077;52.474;13.326;2022-07-30T06:51:59;100983.03;;;21.03;54.90
44359;BME280;30077;52.474;13.326;2022-07-30T06:57:00;100982.25;;;21.12;54.33
44359;BME280;30077;52.474;13.326;2022-07-30T07:02:00;100987.41;;;21.15;54.67
44359;BME280;30077;52.474;13.326;2022-07-30T07:07:00;100992.63;;;21.07;55.27
44359;BME280;30077;52.474;13.326;2022-07-30T07:12:00;100998.72;;;21.00;54.71
44359;BME280;30077;52.474;13.326;2022-07-30T07:17:01;100987.72;;;21.01;55.32
44359;BME280;30077;52.474;13.326;2022-07-30T07:22:02;100990.63;;;21.21;54.90
44359;BME280;30077;52.474;13.326;2022-07-30T07:27:02;100991.53;;;20.99;55.02
44359;BME280;30077;52.474;13.326;2022-07-30T07:32:02;100995.91;;;20.90;55.40
44359;BME280;30077;52.474;13.326;2022-07-30T07:37:03;100993.41;;;20.98;55.26
44359;BME280;30077;52.474;13.326;2022-07-30T07:42:03;100997.16;;;20.86;55.64
44359;BME280;30077;52.474;13.326;2022-07-30T07:47:03;100994.31;;;21.20;55.04
44359;BME280;30077;52.474;13.326;2022-07-30T07:52:04;101002.06;;;21.56;53.92
44359;BME280;30077;52.474;13.326;2022-07-30T07:57:04;100995.97;;;21.43;54.24
44359;BME280;30077;52.474;13.326;2022-07-30T08:02:07;100995.16;;;21.94;53.59
44359;BME280;30077;52.474;13.326;2022-07-30T08:07:07;100988.81;;;21.84;54.34
44359;BME280;30077;52.474;13.326;2022-07-30T08:12:07;101000.97;;;22.10;53.00
44359;BME280;30077;52.474;13.326;2022-07-30T08:17:08;101011.56;;;22.14;53.22
44359;BME280;30077;52.474;13.326;2022-07-30T08:22:08;101009.09;;;22.10;52.91
44359;BME280;30077;52.474;13.326;2022-07-30T08:27:09;101002.53;;;22.34;52.53
44359;BME280;30077;52.474;13.326;2022-07-30T08:32:09;101000.00;;;22.42;52.19
44359;BME280;30077;52.474;13.326;2022-07-30T08:37:10;100996.50;;;22.71;51.29
44359;BME280;30077;52.474;13.326;2022-07-30T08:42:12;100996.97;;;22.86;51.48
44359;BME280;30077;52.474;13.326;2022-07-30T08:47:17;100985.84;;;23.27;49.67
44359;BME280;30077;52.474;13.326;2022-07-30T08:52:18;100997.78;;;22.67;52.06
44359;BME280;30077;52.474;13.326;2022-07-30T08:57:18;100994.81;;;22.89;51.43
44359;BME280;30077;52.474;13.326;2022-07-30T09:02:19;100993.31;;;23.25;50.32
44359;BME280;30077;52.474;13.326;2022-07-30T09:07:19;100994.84;;;23.09;50.44
44359;BME280;30077;52.474;13.326;2022-07-30T09:12:42;100996.44;;;23.01;50.69
44359;BME280;30077;52.474;13.326;2022-07-30T09:17:59;100997.16;;;23.33;50.20
44359;BME280;30077;52.474;13.326;2022-07-30T09:23:03;100996.44;;;23.30;50.44
44359;BME280;30077;52.474;13.326;2022-07-30T09:28:05;100985.13;;;23.16;51.33
44359;BME280;30077;52.474;13.326;2022-07-30T09:33:06;100979.69;;;23.35;50.96
44359;BME280;30077;52.474;13.326;2022-07-30T09:38:06;100987.41;;;23.40;50.66
44359;BME280;30077;52.474;13.326;2022-07-30T09:43:09;100994.72;;;23.20;51.25
44359;BME280;30077;52.474;13.326;2022-07-30T09:48:23;100990.72;;;23.04;52.09
44359;BME280;30077;52.474;13.326;2022-07-30T09:53:23;101001.03;;;23.30;51.59
44359;BME280;30077;52.474;13.326;2022-07-30T09:58:37;100987.13;;;23.33;51.03
44359;BME280;30077;52.474;13.326;2022-07-30T10:03:40;100993.00;;;23.67;50.81
44359;BME280;30077;52.474;13.326;2022-07-30T10:08:46;100989.56;;;23.75;50.13
44359;BME280;30077;52.474;13.326;2022-07-30T10:13:48;100998.16;;;23.70;50.12
44359;BME280;30077;52.474;13.326;2022-07-30T10:18:49;100992.53;;;23.91;49.54
44359;BME280;30077;52.474;13.326;2022-07-30T10:23:51;100998.44;;;23.87;49.70
44359;BME280;30077;52.474;13.326;2022-07-30T10:28:52;100999.69;;;23.92;49.60
44359;BME280;30077;52.474;13.326;2022-07-30T10:33:52;100994.41;;;23.91;49.54
44359;BME280;30077;52.474;13.326;2022-07-30T10:38:53;100995.97;;;23.93;49.51
44359;BME280;30077;52.474;13.326;2022-07-30T10:44:12;100991.78;;;23.89;50.09
44359;BME280;30077;52.474;13.326;2022-07-30T10:49:17;100988.31;;;24.07;49.41
44359;BME280;30077;52.474;13.326;2022-07-30T10:54:38;100989.00;;;24.56;47.41
44359;BME280;30077;52.474;13.326;2022-07-30T11:04:49;100984.53;;;25.00;46.54
44359;BME280;30077;52.474;13.326;2022-07-30T11:09:51;100985.53;;;24.81;46.64
44359;BME280;30077;52.474;13.326;2022-07-30T11:25:08;100975.59;;;25.26;45.10
44359;BME280;30077;52.474;13.326;2022-07-30T11:35:23;100974.44;;;25.10;44.01
44359;BME280;30077;52.474;13.326;2022-07-30T11:40:26;100968.63;;;24.95;44.66
44359;BME280;30077;52.474;13.326;2022-07-30T11:45:26;100976.09;;;24.76;44.99
44359;BME280;30077;52.474;13.326;2022-07-30T11:50:33;100975.22;;;25.38;42.69
44359;BME280;30077;52.474;13.326;2022-07-30T11:55:34;100976.09;;;25.65;42.07
44359;BME280;30077;52.474;13.326;2022-07-30T12:00:38;100975.03;;;26.10;40.76
44359;BME280;30077;52.474;13.326;2022-07-30T12:05:39;100969.19;;;25.97;40.63
44359;BME280;30077;52.474;13.326;2022-07-30T12:10:40;100974.75;;;25.87;41.78
44359;BME280;30077;52.474;13.326;2022-07-30T12:15:43;100978.63;;;25.40;42.62
44359;BME280;30077;52.474;13.326;2022-07-30T12:20:52;100971.25;;;25.59;42.01
44359;BME280;30077;52.474;13.326;2022-07-30T12:25:53;100972.91;;;25.96;41.39
44359;BME280;30077;52.474;13.326;2022-07-30T12:30:55;100979.50;;;25.67;41.74
44359;BME280;30077;52.474;13.326;2022-07-30T12:35:58;100970.25;;;25.60;40.70
44359;BME280;30077;52.474;13.326;2022-07-30T12:41:04;100976.13;;;25.91;40.96
44359;BME280;30077;52.474;13.326;2022-07-30T12:46:04;100977.38;;;26.31;38.97
44359;BME280;30077;52.474;13.326;2022-07-30T12:51:08;100978.59;;;26.36;38.88
44359;BME280;30077;52.474;13.326;2022-07-30T12:56:19;100978.72;;;26.61;38.78
44359;BME280;30077;52.474;13.326;2022-07-30T13:01:38;100959.63;;;26.77;37.31
44359;BME280;30077;52.474;13.326;2022-07-30T13:06:38;100964.09;;;26.95;37.99
44359;BME280;30077;52.474;13.326;2022-07-30T13:11:44;100967.69;;;26.45;39.09
44359;BME280;30077;52.474;13.326;2022-07-30T13:16:44;100972.56;;;25.73;39.70
44359;BME280;30077;52.474;13.326;2022-07-30T13:21:45;100958.03;;;26.58;39.38
44359;BME280;30077;52.474;13.326;2022-07-30T13:26:46;100961.34;;;26.02;39.40
44359;BME280;30077;52.474;13.326;2022-07-30T13:31:46;100963.50;;;25.90;40.76
44359;BME280;30077;52.474;13.326;2022-07-30T13:36:47;100957.66;;;25.67;39.57
44359;BME280;30077;52.474;13.326;2022-07-30T13:41:47;100967.41;;;25.43;40.47
44359;BME280;30077;52.474;13.326;2022-07-30T13:46:47;100959.84;;;26.07;39.19
44359;BME280;30077;52.474;13.326;2022-07-30T13:51:47;100944.16;;;26.52;39.43
44359;BME280;30077;52.474;13.326;2022-07-30T13:56:48;100940.78;;;26.74;39.16
44359;BME280;30077;52.474;13.326;2022-07-30T14:01:48;100954.47;;;25.98;40.21
44359;BME280;30077;52.474;13.326;2022-07-30T14:06:48;100946.94;;;25.74;40.82
44359;BME280;30077;52.474;13.326;2022-07-30T14:11:48;100944.91;;;25.50;40.21
44359;BME280;30077;52.474;13.326;2022-07-30T14:16:49;100945.63;;;26.04;39.49
44359;BME280;30077;52.474;13.326;2022-07-30T14:21:51;100952.09;;;26.03;38.75
44359;BME280;30077;52.474;13.326;2022-07-30T14:26:52;100947.25;;;25.70;40.08
44359;BME280;30077;52.474;13.326;2022-07-30T14:31:54;100940.41;;;25.92;39.31
44359;BME280;30077;52.474;13.326;2022-07-30T14:36:54;100935.16;;;25.47;39.73
44359;BME280;30077;52.474;13.326;2022-07-30T14:41:55;100933.84;;;24.97;41.72
44359;BME280;30077;52.474;13.326;2022-07-30T14:46:55;100927.88;;;25.12;41.33
44359;BME280;30077;52.474;13.326;2022-07-30T14:51:55;100951.06;;;24.98;41.65
44359;BME280;30077;52.474;13.326;2022-07-30T14:56:56;100948.84;;;25.29;39.93
44359;BME280;30077;52.474;13.326;2022-07-30T15:01:56;100953.97;;;24.96;40.76
44359;BME280;30077;52.474;13.326;2022-07-30T15:06:57;100946.41;;;25.26;40.78
44359;BME280;30077;52.474;13.326;2022-07-30T15:11:57;100955.38;;;25.01;40.17
44359;BME280;30077;52.474;13.326;2022-07-30T15:16:57;100944.47;;;25.36;39.66
44359;BME280;30077;52.474;13.326;2022-07-30T15:21:58;100943.63;;;25.18;39.29
44359;BME280;30077;52.474;13.326;2022-07-30T15:27:00;100936.84;;;25.48;38.96
44359;BME280;30077;52.474;13.326;2022-07-30T15:32:00;100935.44;;;25.18;39.85
44359;BME280;30077;52.474;13.326;2022-07-30T15:37:02;100938.66;;;25.13;39.73
44359;BME280;30077;52.474;13.326;2022-07-30T15:42:03;100936.47;;;25.17;40.32
44359;BME280;30077;52.474;13.326;2022-07-30T15:47:04;100920.28;;;25.06;40.13
44359;BME280;30077;52.474;13.326;2022-07-30T15:52:05;100935.25;;;25.37;39.06
44359;BME280;30077;52.474;13.326;2022-07-30T15:57:06;100936.13;;;25.20;39.37
44359;BME280;30077;52.474;13.326;2022-07-30T16:02:06;100933.97;;;24.60;40.26
44359;BME280;30077;52.474;13.326;2022-07-30T16:07:07;100932.94;;;25.25;39.35
44359;BME280;30077;52.474;13.326;2022-07-30T16:12:07;100923.50;;;26.23;38.92
44359;BME280;30077;52.474;13.326;2022-07-30T16:17:07;100929.63;;;26.59;37.39
44359;BME280;30077;52.474;13.326;2022-07-30T16:22:10;100935.38;;;26.40;37.90
44359;BME280;30077;52.474;13.326;2022-07-30T16:27:10;100928.19;;;27.30;36.22
44359;BME280;30077;52.474;13.326;2022-07-30T16:32:10;100935.88;;;27.59;36.11
44359;BME280;30077;52.474;13.326;2022-07-30T16:37:10;100931.31;;;27.27;35.23
44359;BME280;30077;52.474;13.326;2022-07-30T16:42:11;100951.97;;;28.43;35.45
44359;BME280;30077;52.474;13.326;2022-07-30T16:47:11;100951.78;;;27.89;34.33
44359;BME280;30077;52.474;13.326;2022-07-30T16:52:11;100944.56;;;27.96;33.88
44359;BME280;30077;52.474;13.326;2022-07-30T16:57:12;100945.56;;;28.03;34.85
44359;BME280;30077;52.474;13.326;2022-07-30T17:02:12;100942.78;;;27.31;37.08
44359;BME280;30077;52.474;13.326;2022-07-30T17:07:12;100949.41;;;27.86;34.88
44359;BME280;30077;52.474;13.326;2022-07-30T17:12:12;100951.31;;;27.20;35.52
44359;BME280;30077;52.474;13.326;2022-07-30T17:17:13;100952.88;;;25.87;37.33
44359;BME280;30077;52.474;13.326;2022-07-30T17:22:13;100953.00;;;25.59;40.48
44359;BME280;30077;52.474;13.326;2022-07-30T17:27:13;100961.38;;;24.86;42.94
44359;BME280;30077;52.474;13.326;2022-07-30T17:32:14;100963.97;;;24.60;43.16
44359;BME280;30077;52.474;13.326;2022-07-30T17:37:14;100958.66;;;24.31;41.08
44359;BME280;30077;52.474;13.326;2022-07-30T17:42:15;100969.38;;;24.15;42.04
44359;BME280;30077;52.474;13.326;2022-07-30T17:47:15;100961.91;;;24.07;41.46
44359;BME280;30077;52.474;13.326;2022-07-30T17:52:16;100963.69;;;23.98;42.09
44359;BME280;30077;52.474;13.326;2022-07-30T17:57:16;100970.81;;;24.09;41.72
44359;BME280;30077;52.474;13.326;2022-07-30T18:02:18;100967.63;;;24.14;41.00
44359;BME280;30077;52.474;13.326;2022-07-30T18:07:18;100967.63;;;24.14;40.71
44359;BME280;30077;52.474;13.326;2022-07-30T18:12:18;100971.09;;;24.06;40.60
44359;BME280;30077;52.474;13.326;2022-07-30T18:17:19;100970.13;;;23.97;40.64
44359;BME280;30077;52.474;13.326;2022-07-30T18:22:19;100971.31;;;23.85;40.58
44359;BME280;30077;52.474;13.326;2022-07-30T18:27:19;100975.94;;;23.75;41.67
44359;BME280;30077;52.474;13.326;2022-07-30T18:32:20;100975.50;;;23.70;41.92
44359;BME280;30077;52.474;13.326;2022-07-30T18:37:22;100980.06;;;23.60;41.80
44359;BME280;30077;52.474;13.326;2022-07-30T18:42:22;100985.00;;;23.46;42.00
44359;BME280;30077;52.474;13.326;2022-07-30T18:47:22;100985.25;;;23.34;42.36
44359;BME280;30077;52.474;13.326;2022-07-30T18:52:23;100995.31;;;23.14;42.60
44359;BME280;30077;52.474;13.326;2022-07-30T18:57:23;101000.97;;;22.91;43.00
44359;BME280;30077;52.474;13.326;2022-07-30T19:02:23;100992.34;;;22.76;43.10
44359;BME280;30077;52.474;13.326;2022-07-30T19:07:27;101015.53;;;22.71;44.13
44359;BME280;30077;52.474;13.326;2022-07-30T19:12:27;101008.66;;;22.67;44.22
44359;BME280;30077;52.474;13.326;2022-07-30T19:17:27;101024.13;;;22.66;44.16
44359;BME280;30077;52.474;13.326;2022-07-30T19:22:28;101024.25;;;22.65;44.32
44359;BME280;30077;52.474;13.326;2022-07-30T19:27:28;101034.13;;;22.66;46.54
44359;BME280;30077;52.474;13.326;2022-07-30T19:32:28;101032.41;;;22.65;48.29
44359;BME280;30077;52.474;13.326;2022-07-30T19:37:28;101042.09;;;22.57;50.00
44359;BME280;30077;52.474;13.326;2022-07-30T19:42:29;101046.66;;;22.47;50.97
44359;BME280;30077;52.474;13.326;2022-07-30T19:47:29;101053.78;;;22.39;51.72
44359;BME280;30077;52.474;13.326;2022-07-30T19:52:29;101050.28;;;22.27;52.87
44359;BME280;30077;52.474;13.326;2022-07-30T19:57:29;101051.34;;;22.15;53.82
44359;BME280;30077;52.474;13.326;2022-07-30T20:02:30;101049.94;;;21.99;54.13
44359;BME280;30077;52.474;13.326;2022-07-30T20:07:34;101054.75;;;21.86;54.76
44359;BME280;30077;52.474;13.326;2022-07-30T20:12:36;101055.06;;;21.72;55.97
44359;BME280;30077;52.474;13.326;2022-07-30T20:17:36;101046.50;;;21.55;56.58
44359;BME280;30077;52.474;13.326;2022-07-30T20:22:36;101039.53;;;21.42;57.30
44359;BME280;30077;52.474;13.326;2022-07-30T20:27:37;101042.38;;;21.29;57.60
44359;BME280;30077;52.474;13.326;2022-07-30T20:32:39;101047.00;;;21.17;57.88
44359;BME280;30077;52.474;13.326;2022-07-30T20:37:39;101049.84;;;21.04;58.63
44359;BME280;30077;52.474;13.326;2022-07-30T20:42:39;101044.94;;;20.98;59.09
44359;BME280;30077;52.474;13.326;2022-07-30T20:47:41;101052.84;;;20.90;59.22
44359;BME280;30077;52.474;13.326;2022-07-30T20:52:42;101047.06;;;20.83;59.68
44359;BME280;30077;52.474;13.326;2022-07-30T20:57:44;101049.41;;;20.77;60.75
44359;BME280;30077;52.474;13.326;2022-07-30T21:02:44;101038.84;;;20.74;60.64
44359;BME280;30077;52.474;13.326;2022-07-30T21:07:46;101041.19;;;20.67;61.26
44359;BME280;30077;52.474;13.326;2022-07-30T21:12:46;101035.53;;;20.59;61.80
44359;BME280;30077;52.474;13.326;2022-07-30T21:17:46;101037.88;;;20.52;62.37
44359;BME280;30077;52.474;13.326;2022-07-30T21:22:47;101031.81;;;20.49;62.63
44359;BME280;30077;52.474;13.326;2022-07-30T21:27:47;101024.31;;;20.41;63.52
44359;BME280;30077;52.474;13.326;2022-07-30T21:32:47;101023.78;;;20.36;63.74
44359;BME280;30077;52.474;13.326;2022-07-30T21:37:47;101024.41;;;20.28;64.13
44359;BME280;30077;52.474;13.326;2022-07-30T21:42:47;101035.72;;;20.22;65.09
44359;BME280;30077;52.474;13.326;2022-07-30T21:47:48;101026.25;;;20.16;65.50
44359;BME280;30077;52.474;13.326;2022-07-30T21:52:49;101025.03;;;20.09;66.17
44359;BME280;30077;52.474;13.326;2022-07-30T21:57:50;101032.63;;;20.04;66.34
44359;BME280;30077;52.474;13.326;2022-07-30T22:02:51;101028.56;;;19.99;67.04
44359;BME280;30077;52.474;13.326;2022-07-30T22:07:51;101026.47;;;19.91;67.37
44359;BME280;30077;52.474;13.326;2022-07-30T22:12:51;101019.59;;;19.87;67.96
44359;BME280;30077;52.474;13.326;2022-07-30T22:17:52;101018.19;;;19.81;68.60
44359;BME280;30077;52.474;13.326;2022-07-30T22:22:53;101037.53;;;19.77;69.49
44359;BME280;30077;52.474;13.326;2022-07-30T22:27:54;101031.59;;;19.71;70.61
44359;BME280;30077;52.474;13.326;2022-07-30T22:33:15;101030.22;;;19.66;70.97
44359;BME280;30077;52.474;13.326;2022-07-30T22:38:16;101026.09;;;19.60;72.38
44359;BME280;30077;52.474;13.326;2022-07-30T22:43:16;101026.69;;;19.53;72.23
44359;BME280;30077;52.474;13.326;2022-07-30T22:48:17;101028.78;;;19.49;72.74
44359;BME280;30077;52.474;13.326;2022-07-30T22:53:17;101021.16;;;19.43;72.90
44359;BME280;30077;52.474;13.326;2022-07-30T22:58:17;101019.63;;;19.39;73.23
44359;BME280;30077;52.474;13.326;2022-07-30T23:03:18;101008.81;;;19.39;73.64
44359;BME280;30077;52.474;13.326;2022-07-30T23:08:18;101007.84;;;19.40;74.03
44359;BME280;30077;52.474;13.326;2022-07-30T23:13:19;101008.81;;;19.39;74.74
44359;BME280;30077;52.474;13.326;2022-07-30T23:18:19;101012.97;;;19.32;75.47
44359;BME280;30077;52.474;13.326;2022-07-30T23:23:20;101004.34;;;19.27;75.92
44359;BME280;30077;52.474;13.326;2022-07-30T23:28:20;101010.69;;;19.14;76.94
44359;BME280;30077;52.474;13.326;2022-07-30T23:33:20;101001.31;;;19.07;77.62
44359;BME280;30077;52.474;13.326;2022-07-30T23:38:21;100999.72;;;19.05;78.46
44359;BME280;30077;52.474;13.326;2022-07-30T23:43:21;101002.75;;;19.00;79.43
44359;BME280;30077;52.474;13.326;2022-07-30T23:48:22;101006.91;;;18.93;80.23
44359;BME280;30077;52.474;13.326;2022-07-30T23:53:23;101005.63;;;18.86;80.68
44359;BME280;30077;52.474;13.326;2022-07-30T23:58:23;101019.59;;;18.80;81.30
